CheckWX is a tool to help pilots better visualize weather data.  It is not intended as a substitute for an official pre-flight weather briefing.

05:16:38 UTC

KBKX METAR
Brookings Regional Airport
Brookings, South Dakota, USA
Current

21 mins ago

KBKX 200456Z AUTO 13010KT 2SM -SN SCT014 BKN019 OVC039 M11/M13 A3007 RMK AO2 SNB25 SLP234 P0000 T11061133 FZRANO
Observed
Feb-20 @ 04:56 UTC
Wind
  • 130° at 10 KTS
Visibility
3,219 meters
Flight Rules
IFR
Conditions
Light Snow
Cloud Levels
  • Scattered at 1,400' AGL
  • Broken at 1,900' AGL
  • Overcast at 3,900' AGL
Temperature
-11°C / 12°F
Dewpoint
-13°C / 9°F
Humidity
85%
Altimeter
30.07" Hg
Pressure
1023.4 hPa
Current Rain
0.01"
Previous

1 hour ago

KBKX 200356Z AUTO 11007KT 10SM OVC065 M11/M14 A3009 RMK AO2 SLP242 T11061139 FZRANO
Observed
Feb-20 @ 03:56 UTC
Wind
  • 110° at 7 KTS
Visibility
16,093 meters
Flight Rules
VFR
Cloud Levels
  • Overcast at 6,500' AGL
Temperature
-11°C / 12°F
Dewpoint
-14°C / 7°F
Humidity
79%
Altimeter
30.09" Hg
Pressure
1024.2 hPa
Previous

2 hours ago

KBKX 200256Z AUTO 13010KT 9SM BKN065 OVC080 M11/M13 A3014 RMK AO2 SNE23B44E55 SLP263 P0000 60000 T11061133 58030 FZRANO
Observed
Feb-20 @ 02:56 UTC
Wind
  • 130° at 10 KTS
Visibility
14,484 meters
Flight Rules
VFR
Cloud Levels
  • Broken at 6,500' AGL
  • Overcast at 8,000' AGL
Temperature
-11°C / 12°F
Dewpoint
-13°C / 9°F
Humidity
85%
Altimeter
30.14" Hg
Pressure
1026.3 hPa
Current Rain
0.01"